Yucca Valley, CA (92284)

11:16 PM PDT on April 27, 2015 (GMT -0700)
Western Hills Estates | | Change Station
CLOSE
Current Station
Personal Weather Station
Location: Yucca Valley, CA
Elevation: 3924 ft
Nearby Weather Stations

Elev 3924 ft 34.15 °N, 116.43 °W | Updated 16 seconds ago

Clear
Clear
60.1 °F
Feels Like 60.1 °F
N
6.0
Wind Variable Wind from NNW
Gusts 13.0 mph

Today
High -- | Low -- °F
--% Chance of Precip.
Yesterday
High -- | Low -- °F
Precip. -- in
6:00 AM 7:26 PM
Waxing Gibbous, 71% visible
Pressure 30.00 in
Visibility 10.0 miles
Clouds Clear
Dew Point 15 °F
Humidity 17%
Rainfall 0.00 in
Snow Depth Not available.
UV 0 out of 12
Pollen 7.90 out of 12
Air Quality Not available.
Flu Activity Sporadic
METAR KNXP 280556Z AUTO 35006KT 10SM CLR 18/M07 A3008 RMK AO2 SLP159 T01781072 10267 20178 51017 $

More Conditions Fewer Conditions

Pressure 30.00 in
Visibility 10.0 miles
Clouds Clear
Dew Point 15 °F
Humidity 17%
Rainfall 0.00 in
Snow Depth Not available.
UV 0 out of 12
Pollen 7.90 out of 12
Air Quality Not available.
Flu Activity Sporadic
METAR KNXP 280556Z AUTO 35006KT 10SM CLR 18/M07 A3008 RMK AO2 SLP159 T01781072 10267 20178 51017 $

More Conditions Fewer Conditions

10-Day Weather Forecast

Almanac

Astronomy

Apr. 27, 2015 Rise Set
Actual Time
Civil Twilight
Nautical Twilight
Astronomical Twilight
Moon
Length of Visible Light
Length of Day
Tomorrow will be .
, % of the Moon is Illuminated

Today's Extremes

State Highs State Lows

Community

WunderPhotos

Upload Photos

1,817,591 photos uploaded!

WunderBlogs® & News

Nearby

Air Quality

  Air Quality AQ Index Pollutant
Not available.

Snow Depth

Station Depth Elevation

Earthquake Activity

City Distance Mag. Time & Date
Minimum magnitude displayed is 2.5.

Coastal Water Temperatures

Place Temperature

Stations

Nearby Weather Stations

Station Location Temp. Windchill Dew Point Humidity Wind Precip. Elev Updated Type